Time;durP1;ratioP1;P1;durP2;ratioP2;P2;SDS_P1;SDS_P2;PMS_P1;PMS_P2;Temp;Humidity;BMP_temperature;BMP_pressure;BME280_temperature;BME280_humidity;BME280_pressure;Samples;Min_cycle;Max_cycle;Signal;HPM_P1;HPM_P2
2023/09/05 00:00:44;;;;;;;4.53;3.78;;;23.40;99.90;;;;;;6200822;28;94924;-70
2023/09/05 00:03:46;;;;;;;3.58;3.28;;;23.40;99.90;;;;;;6189145;28;94111;-70
2023/09/05 00:06:48;;;;;;;3.92;3.25;;;23.40;99.90;;;;;;6198070;28;94434;-70
2023/09/05 00:09:50;;;;;;;4.53;3.65;;;23.40;99.90;;;;;;6196024;28;94860;-70
2023/09/05 00:12:52;;;;;;;3.80;3.45;;;23.40;99.90;;;;;;6196124;28;94228;-70
2023/09/05 00:15:55;;;;;;;4.90;3.88;;;23.40;99.90;;;;;;6186623;28;94066;-70
2023/09/05 00:18:58;;;;;;;3.47;3.17;;;23.40;99.90;;;;;;6196490;28;94224;-70
2023/09/05 00:22:00;;;;;;;3.60;3.30;;;23.30;99.90;;;;;;6198931;28;93700;-70
2023/09/05 00:25:02;;;;;;;4.10;3.50;;;23.40;99.90;;;;;;6199854;28;94012;-70
2023/09/05 00:28:05;;;;;;;4.95;3.55;;;23.40;99.90;;;;;;6197765;28;94234;-70
2023/09/05 00:31:08;;;;;;;3.70;3.33;;;23.40;99.90;;;;;;6193083;28;94831;-70
2023/09/05 00:34:10;;;;;;;3.80;3.50;;;23.40;99.90;;;;;;6196553;28;94409;-70
2023/09/05 00:37:19;;;;;;;4.32;3.92;;;23.40;99.90;;;;;;6203396;28;95214;-70
2023/09/05 00:40:21;;;;;;;3.88;3.40;;;23.40;99.90;;;;;;6203369;28;93902;-70
2023/09/05 00:43:23;;;;;;;3.88;3.47;;;23.30;99.90;;;;;;6200302;28;94119;-70
2023/09/05 00:46:28;;;;;;;3.83;3.42;;;23.30;99.90;;;;;;6204984;28;94058;-70
2023/09/05 00:49:38;;;;;;;4.22;3.80;;;23.30;99.90;;;;;;6201001;28;94339;-70
2023/09/05 00:52:40;;;;;;;4.45;3.70;;;23.40;99.90;;;;;;6194385;28;93313;-70
2023/09/05 00:55:42;;;;;;;4.00;3.60;;;23.30;99.90;;;;;;6190616;28;94051;-70
2023/09/05 00:58:44;;;;;;;4.15;3.75;;;23.30;99.90;;;;;;6196433;28;94147;-70
2023/09/05 01:01:49;;;;;;;4.38;3.97;;;23.40;99.90;;;;;;6180824;28;93868;-69
2023/09/05 01:04:51;;;;;;;4.07;3.67;;;23.40;99.90;;;;;;6200009;28;94187;-70
2023/09/05 01:08:03;;;;;;;4.53;4.10;;;23.40;99.90;;;;;;6203614;28;94106;-70
2023/09/05 01:11:08;;;;;;;5.00;4.07;;;23.40;99.90;;;;;;6200276;28;94214;-70
2023/09/05 01:14:10;;;;;;;4.05;3.65;;;23.40;99.90;;;;;;6196177;28;95677;-69
2023/09/05 01:17:13;;;;;;;6.70;4.93;;;23.30;99.90;;;;;;6193808;28;94097;-70
2023/09/05 01:20:16;;;;;;;4.40;4.00;;;23.30;99.90;;;;;;6182778;28;94104;-70
2023/09/05 01:23:21;;;;;;;4.93;4.43;;;23.30;99.90;;;;;;6204714;28;93402;-70
2023/09/05 01:26:25;;;;;;;5.57;4.15;;;23.30;99.90;;;;;;6203958;28;95001;-70
2023/09/05 01:29:35;;;;;;;5.15;4.28;;;23.30;99.90;;;;;;6189889;28;94075;-69
2023/09/05 01:32:38;;;;;;;4.70;4.28;;;23.30;99.90;;;;;;6194954;28;95075;-70
2023/09/05 01:35:40;;;;;;;5.10;4.60;;;23.30;99.90;;;;;;6187503;28;94124;-70
2023/09/05 01:38:42;;;;;;;6.05;4.50;;;23.40;99.90;;;;;;6202265;28;94093;-70
2023/09/05 01:41:45;;;;;;;4.78;4.28;;;23.30;99.90;;;;;;6194268;28;94034;-70
2023/09/05 01:44:47;;;;;;;5.68;4.70;;;23.30;99.90;;;;;;6195774;28;94215;-69
2023/09/05 01:47:49;;;;;;;4.85;4.38;;;23.30;99.90;;;;;;6202534;28;94128;-70
2023/09/05 01:50:51;;;;;;;4.88;4.47;;;23.30;99.90;;;;;;6188668;28;94165;-70
2023/09/05 01:53:53;;;;;;;5.50;4.78;;;23.30;99.90;;;;;;6182010;28;93342;-70
2023/09/05 01:56:56;;;;;;;5.03;4.53;;;23.30;99.90;;;;;;6199858;28;94148;-70
2023/09/05 01:59:58;;;;;;;5.30;4.80;;;23.30;99.90;;;;;;6202986;28;94143;-70
2023/09/05 02:03:00;;;;;;;5.28;4.78;;;23.30;99.90;;;;;;6202780;28;95108;-70
2023/09/05 02:06:02;;;;;;;5.20;4.70;;;23.30;99.90;;;;;;6199771;28;94080;-70
2023/09/05 02:09:04;;;;;;;5.32;4.82;;;23.30;99.90;;;;;;6190321;28;94074;-70
2023/09/05 02:12:08;;;;;;;5.55;5.05;;;23.40;99.90;;;;;;6203768;28;94377;-70
2023/09/05 02:15:10;;;;;;;5.75;5.25;;;23.30;99.90;;;;;;6200913;28;94064;-70
2023/09/05 02:18:12;;;;;;;6.03;5.43;;;23.30;99.90;;;;;;6202785;28;94265;-70
2023/09/05 02:21:15;;;;;;;5.80;5.20;;;23.30;99.90;;;;;;6202714;28;94298;-70
2023/09/05 02:24:17;;;;;;;5.65;5.15;;;23.30;99.90;;;;;;6202578;28;93609;-70
2023/09/05 02:27:20;;;;;;;6.05;5.45;;;23.30;99.90;;;;;;6197294;28;94131;-70
2023/09/05 02:30:22;;;;;;;6.07;5.10;;;23.30;99.90;;;;;;6195173;28;94155;-70
2023/09/05 02:33:24;;;;;;;7.18;5.60;;;23.30;99.90;;;;;;6196807;28;95065;-70
2023/09/05 02:36:30;;;;;;;6.03;5.43;;;23.30;99.90;;;;;;6202026;28;94678;-70
2023/09/05 02:39:32;;;;;;;5.30;4.80;;;23.30;99.90;;;;;;6199553;28;94305;-70
2023/09/05 02:42:36;;;;;;;5.72;5.22;;;23.30;99.90;;;;;;6201616;28;94083;-70
2023/09/05 02:45:38;;;;;;;5.80;5.30;;;23.30;99.90;;;;;;6200483;28;92990;-70
2023/09/05 02:48:41;;;;;;;5.85;5.28;;;23.30;99.90;;;;;;6202745;28;94077;-70
2023/09/05 02:51:43;;;;;;;6.40;5.75;;;23.30;99.90;;;;;;6201203;28;94508;-70
2023/09/05 02:54:45;;;;;;;6.30;5.70;;;23.30;99.90;;;;;;6198110;28;93721;-70
2023/09/05 02:57:48;;;;;;;6.18;5.57;;;23.30;99.90;;;;;;6196088;28;94380;-71
2023/09/05 03:00:50;;;;;;;6.07;5.47;;;23.30;99.90;;;;;;6200300;28;94243;-70
2023/09/05 03:03:52;;;;;;;6.47;5.70;;;23.30;99.90;;;;;;6199501;28;95053;-70
2023/09/05 03:06:54;;;;;;;6.00;5.40;;;23.20;99.90;;;;;;6202396;28;94064;-70
2023/09/05 03:09:56;;;;;;;5.53;5.03;;;23.30;99.90;;;;;;6197353;28;93041;-71
2023/09/05 03:12:59;;;;;;;6.75;6.05;;;23.30;99.90;;;;;;6192699;28;94014;-71
2023/09/05 03:16:01;;;;;;;6.45;5.75;;;23.30;99.90;;;;;;6195436;28;94118;-70
2023/09/05 03:19:03;;;;;;;6.00;5.40;;;23.30;99.90;;;;;;6190719;28;94057;-71
2023/09/05 03:22:05;;;;;;;6.60;5.90;;;23.30;99.90;;;;;;6184471;28;94064;-70
2023/09/05 03:25:08;;;;;;;6.20;5.60;;;23.30;99.90;;;;;;6186984;28;93689;-69
2023/09/05 03:28:13;;;;;;;6.50;5.90;;;23.30;99.90;;;;;;6189677;28;94103;-70
2023/09/05 03:31:15;;;;;;;6.30;5.70;;;23.30;99.90;;;;;;6191155;28;94545;-70
2023/09/05 03:34:17;;;;;;;7.35;6.47;;;23.30;99.90;;;;;;6193190;28;96292;-70
2023/09/05 03:37:19;;;;;;;7.78;6.50;;;23.30;99.90;;;;;;6200064;28;94188;-69
2023/09/05 03:40:21;;;;;;;6.10;5.50;;;23.20;99.90;;;;;;6196959;28;92853;-70
2023/09/05 03:43:25;;;;;;;5.80;5.30;;;23.30;99.90;;;;;;6200892;28;94212;-69
2023/09/05 03:46:27;;;;;;;6.38;5.78;;;23.20;99.90;;;;;;6194236;28;94084;-70
2023/09/05 03:49:29;;;;;;;6.60;6.00;;;23.20;99.90;;;;;;6187328;28;94089;-70
2023/09/05 03:52:31;;;;;;;5.90;5.40;;;23.30;99.90;;;;;;6202554;28;94941;-69
2023/09/05 03:55:34;;;;;;;6.40;5.82;;;23.20;99.90;;;;;;6192216;28;93383;-70
2023/09/05 03:58:38;;;;;;;6.50;5.90;;;23.20;99.90;;;;;;6201606;28;94482;-70
2023/09/05 04:01:40;;;;;;;6.38;5.78;;;23.20;99.90;;;;;;6200729;28;94087;-69
2023/09/05 04:04:42;;;;;;;6.43;5.88;;;23.20;99.90;;;;;;6200488;28;95453;-70
2023/09/05 04:07:44;;;;;;;6.63;6.00;;;23.30;99.90;;;;;;6198011;28;94049;-70
2023/09/05 04:10:46;;;;;;;6.50;5.85;;;23.30;99.90;;;;;;6202092;28;94124;-70
2023/09/05 04:13:49;;;;;;;6.60;6.00;;;23.20;99.90;;;;;;6193286;28;94350;-70
2023/09/05 04:16:52;;;;;;;6.43;5.82;;;23.20;99.90;;;;;;6196169;28;94633;-70
2023/09/05 04:19:54;;;;;;;6.35;5.75;;;23.20;99.90;;;;;;6197572;28;94463;-70
2023/09/05 04:22:56;;;;;;;6.75;6.15;;;23.20;99.90;;;;;;6205729;28;94373;-70
2023/09/05 04:26:00;;;;;;;6.75;6.15;;;23.20;99.90;;;;;;6189689;28;93879;-70
2023/09/05 04:29:04;;;;;;;6.88;6.05;;;23.20;99.90;;;;;;6194561;28;94033;-70
2023/09/05 04:32:06;;;;;;;6.90;6.20;;;23.20;99.90;;;;;;6200807;28;94104;-69
2023/09/05 04:35:09;;;;;;;6.80;6.03;;;23.20;99.90;;;;;;6206075;28;95128;-70
2023/09/05 04:38:11;;;;;;;7.18;6.50;;;23.20;99.90;;;;;;6202708;28;94388;-69
2023/09/05 04:41:13;;;;;;;7.45;6.75;;;23.20;99.90;;;;;;6198205;28;94069;-70
2023/09/05 04:44:17;;;;;;;7.10;6.40;;;23.30;99.90;;;;;;6201456;28;94137;-69
2023/09/05 04:47:21;;;;;;;8.30;7.50;;;23.40;99.90;;;;;;6197135;28;94361;-69
2023/09/05 04:50:23;;;;;;;8.25;7.45;;;23.40;99.90;;;;;;6190668;28;94363;-70
2023/09/05 04:53:25;;;;;;;8.57;7.55;;;23.50;99.90;;;;;;6204202;28;94215;-69
2023/09/05 04:56:27;;;;;;;9.10;7.85;;;23.60;99.90;;;;;;6199797;28;93584;-69
2023/09/05 04:59:31;;;;;;;9.40;7.13;;;23.60;99.90;;;;;;6203624;28;94385;-71
2023/09/05 05:02:34;;;;;;;10.43;6.80;;;23.60;99.90;;;;;;6204604;28;94154;-70
2023/09/05 05:05:37;;;;;;;10.52;7.00;;;23.50;99.90;;;;;;6203181;28;95591;-70
2023/09/05 05:08:39;;;;;;;9.20;6.75;;;23.50;99.90;;;;;;6204983;28;94422;-70
2023/09/05 05:11:41;;;;;;;10.00;7.00;;;23.50;99.90;;;;;;6206752;28;94126;-69
2023/09/05 05:14:44;;;;;;;10.57;6.80;;;23.50;99.90;;;;;;6203126;28;94523;-70
2023/09/05 05:17:47;;;;;;;11.43;6.65;;;23.50;99.90;;;;;;6199626;28;94116;-69
2023/09/05 05:20:48;;;;;;;13.25;7.30;;;23.50;99.90;;;;;;6196357;28;94453;-70
2023/09/05 05:23:51;;;;;;;10.02;7.03;;;23.40;99.90;;;;;;6183479;28;94204;-70
2023/09/05 05:26:53;;;;;;;9.32;6.60;;;23.50;99.90;;;;;;6204149;28;93396;-70
2023/09/05 05:29:56;;;;;;;8.55;6.40;;;23.40;99.90;;;;;;6191857;28;94117;-69
2023/09/05 05:32:58;;;;;;;10.45;6.43;;;23.40;99.90;;;;;;6200300;28;94063;-70
2023/09/05 05:36:00;;;;;;;7.88;6.15;;;23.50;99.90;;;;;;6203150;28;93944;-69
2023/09/05 05:39:02;;;;;;;8.63;6.55;;;23.40;99.90;;;;;;6200514;28;94068;-69
2023/09/05 05:42:05;;;;;;;8.25;6.22;;;23.40;99.90;;;;;;6188562;28;94483;-70
2023/09/05 05:45:10;;;;;;;7.40;6.10;;;23.50;99.90;;;;;;6203903;28;94022;-70
2023/09/05 05:48:12;;;;;;;9.27;6.13;;;23.40;99.90;;;;;;6194919;28;94009;-70
2023/09/05 05:51:14;;;;;;;9.88;6.13;;;23.40;99.90;;;;;;6196119;28;93924;-70
2023/09/05 05:54:16;;;;;;;8.10;6.07;;;23.50;99.90;;;;;;6195746;28;94031;-69
2023/09/05 05:57:18;;;;;;;7.22;6.00;;;23.50;99.90;;;;;;6205696;28;93470;-70
2023/09/05 06:00:24;;;;;;;8.57;6.10;;;23.40;99.90;;;;;;6203711;28;95279;-70
2023/09/05 06:03:25;;;;;;;7.38;6.07;;;23.40;99.90;;;;;;6202794;28;94242;-69
2023/09/05 06:06:27;;;;;;;7.88;5.78;;;23.50;99.90;;;;;;6201678;28;95112;-70
2023/09/05 06:09:49;;;;;;;8.90;6.00;;;23.40;99.90;;;;;;6202891;28;94748;-70
2023/09/05 06:12:51;;;;;;;9.25;6.10;;;23.40;99.90;;;;;;6201826;28;93134;-70
2023/09/05 06:15:55;;;;;;;6.90;5.82;;;23.40;99.90;;;;;;6200467;28;94197;-69
2023/09/05 06:18:56;;;;;;;7.45;5.63;;;23.40;99.90;;;;;;6195255;28;93043;-70
2023/09/05 06:21:58;;;;;;;7.03;5.53;;;23.40;99.90;;;;;;6204622;28;94032;-70
2023/09/05 06:25:01;;;;;;;7.55;5.85;;;23.40;99.90;;;;;;6203257;28;94355;-70
2023/09/05 06:28:04;;;;;;;7.00;5.38;;;23.40;99.90;;;;;;6203595;28;93451;-70
2023/09/05 06:31:08;;;;;;;7.72;5.90;;;23.40;99.90;;;;;;6194745;28;94044;-70
2023/09/05 06:34:10;;;;;;;6.82;5.78;;;23.40;99.90;;;;;;6198538;28;94058;-70
2023/09/05 06:37:12;;;;;;;6.47;5.72;;;23.40;99.90;;;;;;6194812;28;96044;-70
2023/09/05 06:40:15;;;;;;;6.47;5.60;;;23.40;99.90;;;;;;6203365;28;93047;-70
2023/09/05 06:43:17;;;;;;;6.47;5.60;;;23.40;99.90;;;;;;6201171;28;94150;-70
2023/09/05 06:46:20;;;;;;;7.82;5.80;;;23.50;99.90;;;;;;6191076;28;94147;-70
2023/09/05 06:49:22;;;;;;;6.10;5.50;;;23.40;99.90;;;;;;6200672;28;94444;-70
2023/09/05 06:52:24;;;;;;;6.47;5.38;;;23.50;99.90;;;;;;6202864;28;92980;-70
2023/09/05 06:55:28;;;;;;;7.65;5.40;;;23.50;99.90;;;;;;6201106;28;94092;-70
2023/09/05 06:58:30;;;;;;;5.88;5.13;;;23.50;99.90;;;;;;6193468;28;93385;-70
2023/09/05 07:01:36;;;;;;;6.20;5.20;;;23.50;99.90;;;;;;6192472;28;94612;-69
2023/09/05 07:04:38;;;;;;;6.85;5.78;;;23.50;99.90;;;;;;6198548;28;94379;-70
2023/09/05 07:07:40;;;;;;;6.55;4.97;;;23.50;99.90;;;;;;6195514;28;95217;-69
2023/09/05 07:10:42;;;;;;;5.75;5.15;;;23.50;99.90;;;;;;6194140;28;94212;-70
2023/09/05 07:13:44;;;;;;;5.45;4.95;;;23.50;99.90;;;;;;6198976;28;94467;-70
2023/09/05 07:16:48;;;;;;;6.03;5.32;;;23.50;99.90;;;;;;6188548;28;96462;-70
2023/09/05 07:19:50;;;;;;;5.88;5.00;;;23.50;99.90;;;;;;6190504;28;94123;-70
2023/09/05 07:22:52;;;;;;;5.53;5.00;;;23.50;99.90;;;;;;6201866;28;94099;-70
2023/09/05 07:25:54;;;;;;;5.20;4.70;;;23.50;99.90;;;;;;6197326;28;93977;-71
2023/09/05 07:28:56;;;;;;;6.20;5.03;;;23.50;99.90;;;;;;6199126;28;93467;-70
2023/09/05 07:32:01;;;;;;;5.95;4.93;;;23.50;99.90;;;;;;6202265;28;94053;-70
2023/09/05 07:35:04;;;;;;;5.45;4.90;;;23.50;99.90;;;;;;6201449;28;94291;-70
2023/09/05 07:38:06;;;;;;;5.47;4.95;;;23.50;99.90;;;;;;6200328;28;94994;-70
2023/09/05 07:41:09;;;;;;;5.80;5.20;;;23.50;99.90;;;;;;6192934;28;94432;-70
2023/09/05 07:44:11;;;;;;;5.00;4.53;;;23.50;99.90;;;;;;6199544;28;94058;-71
2023/09/05 07:47:14;;;;;;;4.68;4.28;;;23.50;99.90;;;;;;6198168;28;94149;-70
2023/09/05 07:50:16;;;;;;;5.00;4.50;;;23.50;99.90;;;;;;6201763;28;94150;-70
2023/09/05 07:53:18;;;;;;;5.57;4.63;;;23.50;99.90;;;;;;6201251;28;94281;-70
2023/09/05 07:56:20;;;;;;;5.47;4.78;;;23.50;99.90;;;;;;6201725;28;94172;-70
2023/09/05 07:59:23;;;;;;;5.13;4.63;;;23.50;99.90;;;;;;6199576;28;93738;-71
2023/09/05 08:02:26;;;;;;;6.13;4.88;;;23.50;99.90;;;;;;6191373;28;94125;-70
2023/09/05 08:05:28;;;;;;;5.78;4.72;;;23.50;99.90;;;;;;6200714;28;95368;-70
2023/09/05 08:08:31;;;;;;;5.10;4.60;;;23.50;99.90;;;;;;6198213;28;95013;-70
2023/09/05 08:11:33;;;;;;;4.65;4.05;;;23.50;99.90;;;;;;6201938;28;94227;-70
2023/09/05 08:14:35;;;;;;;5.10;4.55;;;23.50;99.90;;;;;;6188660;28;94163;-70
2023/09/05 08:17:38;;;;;;;4.78;4.28;;;23.50;99.90;;;;;;6195347;28;94523;-71
2023/09/05 08:20:42;;;;;;;5.53;4.80;;;23.50;99.90;;;;;;6189210;28;94152;-70
2023/09/05 08:23:44;;;;;;;6.13;4.80;;;23.50;99.90;;;;;;6194123;28;94115;-70
2023/09/05 08:26:46;;;;;;;4.85;4.35;;;23.50;99.90;;;;;;6201911;28;94075;-70
2023/09/05 08:29:48;;;;;;;5.53;4.40;;;23.50;99.90;;;;;;6200688;28;93329;-70
2023/09/05 08:32:53;;;;;;;4.90;4.40;;;23.50;99.90;;;;;;6188178;28;94044;-70
2023/09/05 08:35:55;;;;;;;4.90;4.40;;;23.50;99.90;;;;;;6194603;28;94076;-70
2023/09/05 08:38:57;;;;;;;5.10;4.60;;;23.40;99.90;;;;;;6197799;28;95096;-70
2023/09/05 08:42:01;;;;;;;4.63;4.22;;;23.50;99.90;;;;;;6191766;28;94054;-70
2023/09/05 08:45:04;;;;;;;5.18;4.30;;;23.50;99.90;;;;;;6198304;28;94119;-70
2023/09/05 08:48:08;;;;;;;5.75;4.72;;;23.50;99.90;;;;;;6200744;28;94368;-70
2023/09/05 08:51:13;;;;;;;5.03;4.45;;;23.50;99.90;;;;;;6194678;28;94194;-70
2023/09/05 08:54:16;;;;;;;4.45;4.03;;;23.50;99.90;;;;;;6201668;28;94482;-70
2023/09/05 08:57:20;;;;;;;4.70;4.28;;;23.50;99.90;;;;;;6205237;28;94410;-70
2023/09/05 09:00:22;;;;;;;4.68;4.28;;;23.50;99.90;;;;;;6199308;28;93635;-70
2023/09/05 09:03:26;;;;;;;4.97;4.38;;;23.50;99.90;;;;;;6185117;28;93061;-70
2023/09/05 09:06:29;;;;;;;4.72;4.30;;;23.50;99.90;;;;;;6198683;28;94183;-70
2023/09/05 09:09:35;;;;;;;5.07;4.38;;;23.50;99.90;;;;;;6193562;28;95563;-70
2023/09/05 09:12:37;;;;;;;5.50;4.50;;;23.50;99.90;;;;;;6193201;28;93082;-70
2023/09/05 09:15:43;;;;;;;4.82;4.22;;;23.50;99.90;;;;;;6198692;28;93021;-70
2023/09/05 09:18:49;;;;;;;5.18;4.68;;;23.50;99.90;;;;;;6192688;28;94091;-70
2023/09/05 09:21:50;;;;;;;4.57;4.07;;;23.50;99.90;;;;;;6205195;28;94479;-70
2023/09/05 09:24:53;;;;;;;4.80;4.28;;;23.50;99.90;;;;;;6202448;28;94431;-71
2023/09/05 09:27:57;;;;;;;5.35;4.40;;;23.50;99.90;;;;;;6195022;28;94176;-70
2023/09/05 09:31:01;;;;;;;4.50;4.10;;;23.50;99.90;;;;;;6201878;28;93457;-70
2023/09/05 09:34:06;;;;;;;4.60;4.10;;;23.50;99.90;;;;;;6193857;28;94153;-71
2023/09/05 09:37:09;;;;;;;4.40;4.00;;;23.50;99.90;;;;;;6204223;28;94317;-70
2023/09/05 09:40:12;;;;;;;4.95;4.40;;;23.50;99.90;;;;;;6203191;28;96708;-71
2023/09/05 09:43:16;;;;;;;5.85;4.70;;;23.50;99.90;;;;;;6189651;28;94058;-70
2023/09/05 09:46:18;;;;;;;4.47;4.00;;;23.50;99.90;;;;;;6193846;28;94122;-70
2023/09/05 09:49:23;;;;;;;4.60;4.20;;;23.50;99.90;;;;;;6181407;28;94409;-70
2023/09/05 09:52:30;;;;;;;4.68;4.28;;;23.50;99.90;;;;;;6194035;28;94083;-71
2023/09/05 09:55:35;;;;;;;4.60;4.20;;;23.50;99.90;;;;;;6191220;28;94326;-71
2023/09/05 09:58:40;;;;;;;4.88;4.38;;;23.50;99.90;;;;;;6191959;28;93919;-70
2023/09/05 10:01:42;;;;;;;4.43;3.97;;;23.50;99.90;;;;;;6197519;28;93304;-71
2023/09/05 10:04:46;;;;;;;4.72;4.32;;;23.50;99.90;;;;;;6181937;28;94079;-71
2023/09/05 10:07:50;;;;;;;4.57;4.18;;;23.50;99.90;;;;;;6192841;28;94161;-70
2023/09/05 10:10:54;;;;;;;4.60;4.20;;;23.50;99.90;;;;;;6183719;28;95166;-71
2023/09/05 10:13:58;;;;;;;5.10;4.55;;;23.50;99.90;;;;;;6190624;28;94510;-71
2023/09/05 10:17:01;;;;;;;5.25;4.10;;;23.50;99.90;;;;;;6192109;28;94205;-70
2023/09/05 10:20:07;;;;;;;4.57;4.18;;;23.50;99.90;;;;;;6189803;28;94156;-70
2023/09/05 10:23:10;;;;;;;4.90;4.50;;;23.60;99.90;;;;;;6203514;28;94144;-71
2023/09/05 10:26:14;;;;;;;4.68;4.28;;;23.60;99.90;;;;;;6196445;28;94079;-71
2023/09/05 10:29:32;;;;;;;4.47;4.07;;;23.50;99.90;;;;;;6193018;28;94227;-70
2023/09/05 10:32:34;;;;;;;4.30;3.90;;;23.50;99.90;;;;;;6187395;28;93527;-71
2023/09/05 10:35:44;;;;;;;4.40;3.85;;;23.50;99.90;;;;;;6197134;28;94060;-70
2023/09/05 10:38:56;;;;;;;4.28;3.85;;;23.50;99.90;;;;;;6188594;28;94408;-70
2023/09/05 10:41:58;;;;;;;4.40;4.00;;;23.50;99.90;;;;;;6183077;28;94963;-70
2023/09/05 10:45:16;;;;;;;6.07;4.47;;;23.50;99.90;;;;;;6203008;28;94203;-70
2023/09/05 10:48:34;;;;;;;5.57;4.65;;;23.60;99.90;;;;;;6203900;28;94134;-70
2023/09/05 10:51:37;;;;;;;4.47;4.07;;;23.60;99.90;;;;;;6203766;28;94168;-70
2023/09/05 10:54:39;;;;;;;5.13;4.43;;;23.60;99.90;;;;;;6203234;28;94065;-70
2023/09/05 10:57:42;;;;;;;5.05;4.55;;;23.60;99.90;;;;;;6204070;28;94042;-71
2023/09/05 11:00:48;;;;;;;5.03;4.30;;;23.60;99.90;;;;;;6205170;28;94088;-70
2023/09/05 11:03:49;;;;;;;4.38;3.97;;;23.50;99.90;;;;;;6193048;28;94277;-70
2023/09/05 11:06:58;;;;;;;4.13;3.72;;;23.50;99.90;;;;;;6200690;28;94097;-70
2023/09/05 11:10:01;;;;;;;4.45;4.05;;;23.60;99.90;;;;;;6190040;28;94056;-70
2023/09/05 11:13:08;;;;;;;4.15;3.75;;;23.60;99.90;;;;;;6194659;28;95355;-71
2023/09/05 11:16:10;;;;;;;4.10;3.75;;;23.60;99.90;;;;;;6179660;28;94264;-71
2023/09/05 11:19:12;;;;;;;5.15;4.05;;;23.60;99.90;;;;;;6180183;28;94064;-71
2023/09/05 11:22:17;;;;;;;4.38;3.97;;;23.60;99.90;;;;;;6201712;28;94131;-71
2023/09/05 11:25:19;;;;;;;4.15;3.75;;;23.60;99.90;;;;;;6192945;28;95930;-71
2023/09/05 11:28:24;;;;;;;4.28;3.88;;;23.60;99.90;;;;;;6191984;28;94183;-71
2023/09/05 11:31:26;;;;;;;4.32;3.92;;;23.60;99.90;;;;;;6180377;28;94211;-71
2023/09/05 11:34:28;;;;;;;4.18;3.78;;;23.60;99.90;;;;;;6193247;28;93365;-71
2023/09/05 11:37:32;;;;;;;4.30;3.90;;;23.60;99.90;;;;;;6197768;28;93937;-71
2023/09/05 11:40:35;;;;;;;4.40;4.00;;;23.60;99.90;;;;;;6202422;28;94424;-70
2023/09/05 11:43:45;;;;;;;4.57;4.18;;;23.60;99.90;;;;;;6201337;28;95081;-71
2023/09/05 11:46:47;;;;;;;4.30;3.90;;;23.60;99.90;;;;;;6189382;28;94218;-70
2023/09/05 11:49:50;;;;;;;4.00;3.70;;;23.50;99.90;;;;;;6185280;28;94129;-70
2023/09/05 11:52:54;;;;;;;4.53;4.13;;;23.60;99.90;;;;;;6191440;28;93994;-71
2023/09/05 11:55:56;;;;;;;4.55;4.15;;;23.60;99.90;;;;;;6177914;28;94104;-71
2023/09/05 11:58:58;;;;;;;4.22;3.83;;;23.60;99.90;;;;;;6202722;28;93424;-71
2023/09/05 12:02:07;;;;;;;4.30;3.90;;;23.60;99.90;;;;;;6202154;28;94095;-70
2023/09/05 12:05:10;;;;;;;4.10;3.70;;;23.60;99.90;;;;;;6189126;28;93288;-71
2023/09/05 12:08:13;;;;;;;3.83;3.53;;;23.60;99.90;;;;;;6188493;28;94301;-70
2023/09/05 12:11:24;;;;;;;4.43;4.03;;;23.60;99.90;;;;;;6187912;28;95110;-70
2023/09/05 12:14:43;;;;;;;4.00;3.70;;;23.60;99.90;;;;;;6199734;28;93888;-71
2023/09/05 12:17:48;;;;;;;4.10;3.80;;;23.60;99.90;;;;;;6199563;28;94173;-71
2023/09/05 12:20:56;;;;;;;4.70;4.10;;;23.60;99.90;;;;;;6202545;28;93031;-71
2023/09/05 12:24:19;;;;;;;3.88;3.58;;;23.60;99.90;;;;;;6200444;28;94008;-71
2023/09/05 12:27:25;;;;;;;4.32;3.92;;;23.60;99.90;;;;;;6197279;28;94560;-70
2023/09/05 12:30:29;;;;;;;3.70;3.40;;;23.60;99.90;;;;;;6193735;28;94091;-70
2023/09/05 12:33:32;;;;;;;4.72;4.20;;;23.60;99.90;;;;;;6206788;28;94066;-71
2023/09/05 12:36:35;;;;;;;4.00;3.65;;;23.60;99.90;;;;;;6201638;28;93385;-70
2023/09/05 12:39:39;;;;;;;4.07;3.78;;;23.60;99.90;;;;;;6204102;28;94352;-70
2023/09/05 12:42:44;;;;;;;4.50;4.10;;;23.60;99.90;;;;;;6198097;28;94428;-70
2023/09/05 12:45:48;;;;;;;4.28;3.88;;;23.60;99.90;;;;;;6205459;28;96621;-71
2023/09/05 12:48:53;;;;;;;4.18;3.88;;;23.60;99.90;;;;;;6205683;28;94358;-70
2023/09/05 12:51:55;;;;;;;4.40;4.00;;;23.60;99.90;;;;;;6206365;28;95014;-70
2023/09/05 12:54:59;;;;;;;4.13;3.78;;;23.60;99.90;;;;;;6205868;28;94174;-70
2023/09/05 12:58:03;;;;;;;4.07;3.67;;;23.60;99.90;;;;;;6206019;28;94257;-71
2023/09/05 13:01:05;;;;;;;3.90;3.50;;;23.60;99.90;;;;;;6205348;28;93165;-70
2023/09/05 13:04:08;;;;;;;4.38;3.97;;;23.60;99.90;;;;;;6205326;28;94072;-71
2023/09/05 13:07:10;;;;;;;4.00;3.60;;;23.60;99.90;;;;;;6205843;28;93613;-71
2023/09/05 13:10:14;;;;;;;3.80;3.50;;;23.60;99.90;;;;;;6206151;28;94095;-70
2023/09/05 13:13:16;;;;;;;3.88;3.50;;;23.60;99.90;;;;;;6203671;28;95784;-71
2023/09/05 13:16:18;;;;;;;3.80;3.50;;;23.60;99.90;;;;;;6203763;28;95099;-70
2023/09/05 13:19:20;;;;;;;3.92;3.63;;;23.60;99.90;;;;;;6203966;28;94109;-71
2023/09/05 13:22:22;;;;;;;3.80;3.40;;;23.60;99.90;;;;;;6203409;28;94147;-71
2023/09/05 13:25:28;;;;;;;4.15;3.72;;;23.60;99.90;;;;;;6194407;28;94451;-72
2023/09/05 13:28:30;;;;;;;4.03;3.65;;;23.60;99.90;;;;;;6205169;28;94065;-70
2023/09/05 13:31:32;;;;;;;3.88;3.58;;;23.60;99.90;;;;;;6205955;28;94321;-70
2023/09/05 13:34:34;;;;;;;3.75;3.45;;;23.60;99.90;;;;;;6192167;28;94698;-71
2023/09/05 13:37:36;;;;;;;4.30;3.90;;;23.60;99.90;;;;;;6204256;28;93097;-70
2023/09/05 13:40:39;;;;;;;4.10;3.80;;;23.60;99.90;;;;;;6197695;28;94106;-71
2023/09/05 13:43:41;;;;;;;4.15;3.75;;;23.60;99.90;;;;;;6186885;28;94116;-70
2023/09/05 13:46:45;;;;;;;3.80;3.40;;;23.60;99.90;;;;;;6203485;28;95328;-71
2023/09/05 13:49:49;;;;;;;3.63;3.33;;;23.60;99.90;;;;;;6187653;28;94055;-70
2023/09/05 13:52:51;;;;;;;4.03;3.67;;;23.60;99.90;;;;;;6191915;28;94080;-71
2023/09/05 13:55:54;;;;;;;4.10;3.78;;;23.60;99.90;;;;;;6191159;28;94225;-70
2023/09/05 13:58:56;;;;;;;4.00;3.70;;;23.60;99.90;;;;;;6192585;28;94092;-71
2023/09/05 14:01:58;;;;;;;3.92;3.63;;;23.60;99.90;;;;;;6180765;28;94171;-71
2023/09/05 14:05:00;;;;;;;4.10;3.70;;;23.60;99.90;;;;;;6202061;28;94169;-71
2023/09/05 14:08:02;;;;;;;4.03;3.53;;;23.60;99.90;;;;;;6191161;28;93359;-71
2023/09/05 14:11:05;;;;;;;3.75;3.45;;;23.60;99.90;;;;;;6184264;28;94628;-70
2023/09/05 14:14:08;;;;;;;3.88;3.58;;;23.60;99.90;;;;;;6192044;28;94457;-71
2023/09/05 14:17:10;;;;;;;3.90;3.60;;;23.60;99.90;;;;;;6178384;28;95654;-71
2023/09/05 14:20:13;;;;;;;4.00;3.70;;;23.60;99.90;;;;;;6185728;28;94400;-71
2023/09/05 14:23:15;;;;;;;3.60;3.30;;;23.60;99.90;;;;;;6204092;28;93964;-70
2023/09/05 14:26:18;;;;;;;3.78;3.40;;;23.60;99.90;;;;;;6203416;28;94428;-71
2023/09/05 14:29:20;;;;;;;3.97;3.60;;;23.60;99.90;;;;;;6197875;28;94445;-71
2023/09/05 14:32:22;;;;;;;3.65;3.35;;;23.60;99.90;;;;;;6181331;28;94065;-71
2023/09/05 14:35:24;;;;;;;4.45;4.05;;;23.60;99.90;;;;;;6182342;28;94127;-71
2023/09/05 14:38:26;;;;;;;3.90;3.60;;;23.60;99.90;;;;;;6202098;28;93380;-71
2023/09/05 14:41:31;;;;;;;3.70;3.40;;;23.60;99.90;;;;;;6194247;28;94120;-71
2023/09/05 14:44:33;;;;;;;3.85;3.55;;;23.60;99.90;;;;;;6204168;28;94147;-71
2023/09/05 14:47:36;;;;;;;3.63;3.33;;;23.80;99.90;;;;;;6179839;28;95058;-71
2023/09/05 14:50:38;;;;;;;3.90;3.60;;;23.60;99.90;;;;;;6192176;28;94344;-71
2023/09/05 14:53:40;;;;;;;3.60;3.30;;;23.60;99.90;;;;;;6192075;28;94020;-71
2023/09/05 14:56:44;;;;;;;3.83;3.53;;;23.60;99.90;;;;;;6192469;28;94071;-72
2023/09/05 14:59:46;;;;;;;3.72;3.42;;;23.60;99.90;;;;;;6179829;28;93989;-71
2023/09/05 15:02:48;;;;;;;3.83;3.45;;;23.60;99.90;;;;;;6183964;28;94095;-70
2023/09/05 15:05:50;;;;;;;4.22;3.83;;;23.60;99.90;;;;;;6200591;28;94095;-71
2023/09/05 15:08:53;;;;;;;3.95;3.63;;;23.60;99.90;;;;;;6191702;28;93488;-71
2023/09/05 15:11:56;;;;;;;3.80;3.50;;;23.60;99.90;;;;;;6181467;28;93280;-71
2023/09/05 15:14:58;;;;;;;3.60;3.30;;;23.60;99.90;;;;;;6193329;28;94126;-71
2023/09/05 15:18:01;;;;;;;3.80;3.50;;;23.60;99.90;;;;;;6193015;28;95044;-71
2023/09/05 15:21:03;;;;;;;3.83;3.42;;;23.60;99.90;;;;;;6199543;28;94231;-71
2023/09/05 15:24:06;;;;;;;4.10;3.70;;;23.60;99.90;;;;;;6189863;28;94045;-70
2023/09/05 15:27:09;;;;;;;4.95;4.03;;;23.60;99.90;;;;;;6189084;28;93207;-71
2023/09/05 15:30:15;;;;;;;3.70;3.40;;;23.60;99.90;;;;;;6191769;28;93062;-71
2023/09/05 15:33:17;;;;;;;3.75;3.45;;;23.60;99.90;;;;;;6203223;28;93649;-71
2023/09/05 15:36:19;;;;;;;3.90;3.60;;;23.60;99.90;;;;;;6184931;28;94142;-70
2023/09/05 15:39:21;;;;;;;3.90;3.60;;;23.60;99.90;;;;;;6202876;28;93384;-71
2023/09/05 15:42:27;;;;;;;3.70;3.40;;;23.60;99.90;;;;;;6181359;28;94151;-70
2023/09/05 15:45:29;;;;;;;3.78;3.47;;;23.60;99.90;;;;;;6198438;28;94207;-70
2023/09/05 15:48:31;;;;;;;3.60;3.30;;;23.60;99.90;;;;;;6195482;28;95043;-70
2023/09/05 15:51:33;;;;;;;3.90;3.60;;;23.60;99.90;;;;;;6178787;28;94218;-71